sensor_id;sensor_type;location;lat;lon;timestamp;P1;durP1;ratioP1;P2;durP2;ratioP2
8333;SDS011;4204;43.004;23.052;2022-12-10T00:01:21;11.27;;;7.00;;
8333;SDS011;4204;43.004;23.052;2022-12-10T00:03:49;15.57;;;7.10;;
8333;SDS011;4204;43.004;23.052;2022-12-10T00:06:19;11.53;;;6.20;;
8333;SDS011;4204;43.004;23.052;2022-12-10T00:08:49;11.30;;;4.97;;
8333;SDS011;4204;43.004;23.052;2022-12-10T00:11:17;8.53;;;5.77;;
8333;SDS011;4204;43.004;23.052;2022-12-10T00:13:47;12.10;;;6.73;;
8333;SDS011;4204;43.004;23.052;2022-12-10T00:16:17;9.83;;;5.73;;
8333;SDS011;4204;43.004;23.052;2022-12-10T00:18:45;8.83;;;5.80;;
8333;SDS011;4204;43.004;23.052;2022-12-10T00:21:14;9.03;;;5.90;;
8333;SDS011;4204;43.004;23.052;2022-12-10T00:23:44;9.03;;;6.37;;
8333;SDS011;4204;43.004;23.052;2022-12-10T00:26:15;11.20;;;6.43;;
8333;SDS011;4204;43.004;23.052;2022-12-10T00:28:44;6.97;;;5.33;;
8333;SDS011;4204;43.004;23.052;2022-12-10T00:31:15;8.03;;;5.80;;
8333;SDS011;4204;43.004;23.052;2022-12-10T00:33:46;9.60;;;5.97;;
8333;SDS011;4204;43.004;23.052;2022-12-10T00:36:14;8.77;;;5.67;;
8333;SDS011;4204;43.004;23.052;2022-12-10T00:38:44;10.50;;;6.53;;
8333;SDS011;4204;43.004;23.052;2022-12-10T00:41:14;9.57;;;5.87;;
8333;SDS011;4204;43.004;23.052;2022-12-10T00:43:42;10.73;;;5.70;;
8333;SDS011;4204;43.004;23.052;2022-12-10T00:46:11;11.83;;;6.23;;
8333;SDS011;4204;43.004;23.052;2022-12-10T00:48:40;8.27;;;5.57;;
8333;SDS011;4204;43.004;23.052;2022-12-10T00:51:08;8.80;;;5.33;;
8333;SDS011;4204;43.004;23.052;2022-12-10T00:53:38;10.10;;;6.20;;
8333;SDS011;4204;43.004;23.052;2022-12-10T00:56:07;11.87;;;5.60;;
8333;SDS011;4204;43.004;23.052;2022-12-10T00:58:37;10.60;;;6.20;;
8333;SDS011;4204;43.004;23.052;2022-12-10T01:01:06;9.77;;;5.57;;
8333;SDS011;4204;43.004;23.052;2022-12-10T01:03:35;7.67;;;6.27;;
8333;SDS011;4204;43.004;23.052;2022-12-10T01:06:11;9.57;;;5.53;;
8333;SDS011;4204;43.004;23.052;2022-12-10T01:08:41;10.30;;;6.03;;
8333;SDS011;4204;43.004;23.052;2022-12-10T01:11:09;8.50;;;5.40;;
8333;SDS011;4204;43.004;23.052;2022-12-10T01:13:39;13.77;;;5.87;;
8333;SDS011;4204;43.004;23.052;2022-12-10T01:16:08;8.03;;;5.13;;
8333;SDS011;4204;43.004;23.052;2022-12-10T01:18:37;9.37;;;6.40;;
8333;SDS011;4204;43.004;23.052;2022-12-10T01:21:06;20.63;;;5.67;;
8333;SDS011;4204;43.004;23.052;2022-12-10T01:23:37;7.63;;;5.33;;
8333;SDS011;4204;43.004;23.052;2022-12-10T01:26:09;9.33;;;5.43;;
8333;SDS011;4204;43.004;23.052;2022-12-10T01:28:39;11.50;;;5.77;;
8333;SDS011;4204;43.004;23.052;2022-12-10T01:31:09;10.47;;;5.87;;
8333;SDS011;4204;43.004;23.052;2022-12-10T01:33:38;10.37;;;6.77;;
8333;SDS011;4204;43.004;23.052;2022-12-10T01:36:07;10.87;;;6.87;;
8333;SDS011;4204;43.004;23.052;2022-12-10T01:38:38;10.50;;;6.07;;
8333;SDS011;4204;43.004;23.052;2022-12-10T01:41:07;10.27;;;5.97;;
8333;SDS011;4204;43.004;23.052;2022-12-10T01:43:52;13.47;;;6.17;;
8333;SDS011;4204;43.004;23.052;2022-12-10T01:46:22;9.90;;;5.87;;
8333;SDS011;4204;43.004;23.052;2022-12-10T01:48:51;8.50;;;5.50;;
8333;SDS011;4204;43.004;23.052;2022-12-10T01:51:19;9.07;;;5.13;;
8333;SDS011;4204;43.004;23.052;2022-12-10T01:53:49;8.53;;;5.37;;
8333;SDS011;4204;43.004;23.052;2022-12-10T01:56:18;7.67;;;5.63;;
8333;SDS011;4204;43.004;23.052;2022-12-10T01:58:46;11.10;;;5.77;;
8333;SDS011;4204;43.004;23.052;2022-12-10T02:01:19;10.37;;;5.67;;
8333;SDS011;4204;43.004;23.052;2022-12-10T02:03:57;11.67;;;5.90;;
8333;SDS011;4204;43.004;23.052;2022-12-10T02:06:41;8.20;;;5.53;;
8333;SDS011;4204;43.004;23.052;2022-12-10T02:09:16;8.57;;;5.57;;
8333;SDS011;4204;43.004;23.052;2022-12-10T02:11:58;8.67;;;5.90;;
8333;SDS011;4204;43.004;23.052;2022-12-10T02:14:36;12.83;;;8.00;;
8333;SDS011;4204;43.004;23.052;2022-12-10T02:17:13;16.13;;;9.83;;
8333;SDS011;4204;43.004;23.052;2022-12-10T02:19:54;11.87;;;7.20;;
8333;SDS011;4204;43.004;23.052;2022-12-10T02:22:29;14.13;;;7.67;;
8333;SDS011;4204;43.004;23.052;2022-12-10T02:25:00;10.73;;;6.70;;
8333;SDS011;4204;43.004;23.052;2022-12-10T02:27:35;15.63;;;6.63;;
8333;SDS011;4204;43.004;23.052;2022-12-10T02:30:09;9.47;;;7.17;;
8333;SDS011;4204;43.004;23.052;2022-12-10T02:32:38;13.43;;;6.73;;
8333;SDS011;4204;43.004;23.052;2022-12-10T02:35:10;10.90;;;6.80;;
8333;SDS011;4204;43.004;23.052;2022-12-10T02:37:42;13.27;;;6.20;;
8333;SDS011;4204;43.004;23.052;2022-12-10T02:40:15;14.07;;;7.33;;
8333;SDS011;4204;43.004;23.052;2022-12-10T02:42:50;13.73;;;6.17;;
8333;SDS011;4204;43.004;23.052;2022-12-10T02:45:22;11.30;;;6.13;;
8333;SDS011;4204;43.004;23.052;2022-12-10T02:47:54;7.80;;;6.10;;
8333;SDS011;4204;43.004;23.052;2022-12-10T02:50:32;11.97;;;7.63;;
8333;SDS011;4204;43.004;23.052;2022-12-10T02:53:02;12.13;;;7.03;;
8333;SDS011;4204;43.004;23.052;2022-12-10T02:55:30;13.07;;;7.23;;
8333;SDS011;4204;43.004;23.052;2022-12-10T02:58:10;10.73;;;7.20;;
8333;SDS011;4204;43.004;23.052;2022-12-10T03:00:50;12.47;;;6.87;;
8333;SDS011;4204;43.004;23.052;2022-12-10T03:03:28;14.50;;;6.57;;
8333;SDS011;4204;43.004;23.052;2022-12-10T03:06:07;9.63;;;7.07;;
8333;SDS011;4204;43.004;23.052;2022-12-10T03:08:40;12.97;;;6.87;;
8333;SDS011;4204;43.004;23.052;2022-12-10T03:11:14;9.80;;;7.00;;
8333;SDS011;4204;43.004;23.052;2022-12-10T03:13:45;10.00;;;6.53;;
8333;SDS011;4204;43.004;23.052;2022-12-10T03:16:20;10.47;;;6.40;;
8333;SDS011;4204;43.004;23.052;2022-12-10T03:18:52;8.10;;;5.50;;
8333;SDS011;4204;43.004;23.052;2022-12-10T03:21:24;9.77;;;6.13;;
8333;SDS011;4204;43.004;23.052;2022-12-10T03:23:54;12.53;;;5.40;;
8333;SDS011;4204;43.004;23.052;2022-12-10T03:26:22;9.40;;;6.00;;
8333;SDS011;4204;43.004;23.052;2022-12-10T03:28:51;12.40;;;6.10;;
8333;SDS011;4204;43.004;23.052;2022-12-10T03:31:24;10.97;;;6.03;;
8333;SDS011;4204;43.004;23.052;2022-12-10T03:33:52;12.53;;;6.13;;
8333;SDS011;4204;43.004;23.052;2022-12-10T03:36:21;11.10;;;6.17;;
8333;SDS011;4204;43.004;23.052;2022-12-10T03:38:50;13.13;;;5.63;;
8333;SDS011;4204;43.004;23.052;2022-12-10T03:41:19;10.80;;;5.80;;
8333;SDS011;4204;43.004;23.052;2022-12-10T03:43:54;10.30;;;6.40;;
8333;SDS011;4204;43.004;23.052;2022-12-10T03:46:22;11.90;;;5.60;;
8333;SDS011;4204;43.004;23.052;2022-12-10T03:48:53;13.27;;;5.50;;
8333;SDS011;4204;43.004;23.052;2022-12-10T03:51:21;10.27;;;6.13;;
8333;SDS011;4204;43.004;23.052;2022-12-10T03:53:49;14.73;;;5.80;;
8333;SDS011;4204;43.004;23.052;2022-12-10T03:56:17;10.37;;;5.37;;
8333;SDS011;4204;43.004;23.052;2022-12-10T03:58:45;13.20;;;6.17;;
8333;SDS011;4204;43.004;23.052;2022-12-10T04:01:13;11.03;;;5.33;;
8333;SDS011;4204;43.004;23.052;2022-12-10T04:03:43;10.40;;;5.60;;
8333;SDS011;4204;43.004;23.052;2022-12-10T04:06:13;13.40;;;6.00;;
8333;SDS011;4204;43.004;23.052;2022-12-10T04:08:41;10.73;;;5.47;;
8333;SDS011;4204;43.004;23.052;2022-12-10T04:11:10;5.97;;;4.63;;
8333;SDS011;4204;43.004;23.052;2022-12-10T04:13:38;9.23;;;4.83;;
8333;SDS011;4204;43.004;23.052;2022-12-10T04:16:24;10.33;;;5.20;;
8333;SDS011;4204;43.004;23.052;2022-12-10T04:18:57;7.43;;;5.00;;
8333;SDS011;4204;43.004;23.052;2022-12-10T04:21:27;9.30;;;5.63;;
8333;SDS011;4204;43.004;23.052;2022-12-10T04:24:14;6.03;;;4.53;;
8333;SDS011;4204;43.004;23.052;2022-12-10T04:27:02;7.80;;;4.93;;
8333;SDS011;4204;43.004;23.052;2022-12-10T04:29:32;14.03;;;6.13;;
8333;SDS011;4204;43.004;23.052;2022-12-10T04:31:59;10.13;;;5.27;;
8333;SDS011;4204;43.004;23.052;2022-12-10T04:34:28;7.40;;;5.30;;
8333;SDS011;4204;43.004;23.052;2022-12-10T04:36:56;8.30;;;5.80;;
8333;SDS011;4204;43.004;23.052;2022-12-10T04:39:24;10.00;;;5.07;;
8333;SDS011;4204;43.004;23.052;2022-12-10T04:41:52;10.83;;;5.27;;
8333;SDS011;4204;43.004;23.052;2022-12-10T04:44:20;9.10;;;5.37;;
8333;SDS011;4204;43.004;23.052;2022-12-10T04:46:48;11.07;;;5.83;;
8333;SDS011;4204;43.004;23.052;2022-12-10T04:49:16;12.60;;;5.47;;
8333;SDS011;4204;43.004;23.052;2022-12-10T04:51:45;10.00;;;4.93;;
8333;SDS011;4204;43.004;23.052;2022-12-10T04:54:13;9.50;;;4.57;;
8333;SDS011;4204;43.004;23.052;2022-12-10T04:56:41;9.53;;;4.90;;
8333;SDS011;4204;43.004;23.052;2022-12-10T04:59:09;15.20;;;5.47;;
8333;SDS011;4204;43.004;23.052;2022-12-10T05:01:37;8.70;;;4.90;;
8333;SDS011;4204;43.004;23.052;2022-12-10T05:04:06;5.93;;;4.63;;
8333;SDS011;4204;43.004;23.052;2022-12-10T05:06:36;14.93;;;5.27;;
8333;SDS011;4204;43.004;23.052;2022-12-10T05:09:06;8.10;;;5.00;;
8333;SDS011;4204;43.004;23.052;2022-12-10T05:11:34;7.93;;;4.10;;
8333;SDS011;4204;43.004;23.052;2022-12-10T05:14:02;11.37;;;4.73;;
8333;SDS011;4204;43.004;23.052;2022-12-10T05:16:31;8.13;;;4.80;;
8333;SDS011;4204;43.004;23.052;2022-12-10T05:19:00;7.47;;;5.17;;
8333;SDS011;4204;43.004;23.052;2022-12-10T05:21:28;9.10;;;5.47;;
8333;SDS011;4204;43.004;23.052;2022-12-10T05:24:18;13.97;;;5.20;;
8333;SDS011;4204;43.004;23.052;2022-12-10T05:26:45;13.90;;;9.23;;
8333;SDS011;4204;43.004;23.052;2022-12-10T05:29:16;7.67;;;5.50;;
8333;SDS011;4204;43.004;23.052;2022-12-10T05:31:46;7.60;;;4.77;;
8333;SDS011;4204;43.004;23.052;2022-12-10T05:34:14;8.47;;;5.27;;
8333;SDS011;4204;43.004;23.052;2022-12-10T05:36:41;8.80;;;5.50;;
8333;SDS011;4204;43.004;23.052;2022-12-10T05:39:10;6.93;;;5.03;;
8333;SDS011;4204;43.004;23.052;2022-12-10T05:41:39;6.97;;;3.90;;
8333;SDS011;4204;43.004;23.052;2022-12-10T05:44:08;7.47;;;4.70;;
8333;SDS011;4204;43.004;23.052;2022-12-10T05:46:37;7.70;;;4.50;;
8333;SDS011;4204;43.004;23.052;2022-12-10T05:49:05;6.63;;;4.00;;
8333;SDS011;4204;43.004;23.052;2022-12-10T05:51:34;7.23;;;3.87;;
8333;SDS011;4204;43.004;23.052;2022-12-10T05:54:04;7.73;;;5.37;;
8333;SDS011;4204;43.004;23.052;2022-12-10T05:56:34;9.20;;;4.27;;
8333;SDS011;4204;43.004;23.052;2022-12-10T05:59:04;9.70;;;5.27;;
8333;SDS011;4204;43.004;23.052;2022-12-10T06:01:33;13.80;;;9.63;;
8333;SDS011;4204;43.004;23.052;2022-12-10T06:04:03;9.37;;;6.10;;
8333;SDS011;4204;43.004;23.052;2022-12-10T06:06:33;5.97;;;3.67;;
8333;SDS011;4204;43.004;23.052;2022-12-10T06:09:02;6.17;;;3.50;;
8333;SDS011;4204;43.004;23.052;2022-12-10T06:11:31;6.17;;;3.80;;
8333;SDS011;4204;43.004;23.052;2022-12-10T06:14:00;8.20;;;3.67;;
8333;SDS011;4204;43.004;23.052;2022-12-10T06:16:30;7.23;;;3.80;;
8333;SDS011;4204;43.004;23.052;2022-12-10T06:18:57;7.60;;;4.00;;
8333;SDS011;4204;43.004;23.052;2022-12-10T06:21:25;9.23;;;4.43;;
8333;SDS011;4204;43.004;23.052;2022-12-10T06:23:53;6.40;;;3.73;;
8333;SDS011;4204;43.004;23.052;2022-12-10T06:26:21;13.43;;;5.93;;
8333;SDS011;4204;43.004;23.052;2022-12-10T06:28:51;14.80;;;11.17;;
8333;SDS011;4204;43.004;23.052;2022-12-10T06:31:20;12.23;;;6.73;;
8333;SDS011;4204;43.004;23.052;2022-12-10T06:33:49;11.47;;;6.93;;
8333;SDS011;4204;43.004;23.052;2022-12-10T06:36:17;10.40;;;5.90;;
8333;SDS011;4204;43.004;23.052;2022-12-10T06:38:46;5.53;;;4.20;;
8333;SDS011;4204;43.004;23.052;2022-12-10T06:41:15;8.87;;;5.30;;
8333;SDS011;4204;43.004;23.052;2022-12-10T06:43:44;11.57;;;7.30;;
8333;SDS011;4204;43.004;23.052;2022-12-10T06:46:12;9.03;;;5.00;;
8333;SDS011;4204;43.004;23.052;2022-12-10T06:48:41;6.80;;;3.53;;
8333;SDS011;4204;43.004;23.052;2022-12-10T06:51:11;5.43;;;3.50;;
8333;SDS011;4204;43.004;23.052;2022-12-10T06:53:40;5.03;;;3.60;;
8333;SDS011;4204;43.004;23.052;2022-12-10T06:56:10;8.03;;;3.50;;
8333;SDS011;4204;43.004;23.052;2022-12-10T06:58:40;7.07;;;3.33;;
8333;SDS011;4204;43.004;23.052;2022-12-10T07:01:09;5.37;;;3.30;;
8333;SDS011;4204;43.004;23.052;2022-12-10T07:03:38;7.57;;;3.47;;
8333;SDS011;4204;43.004;23.052;2022-12-10T07:06:07;5.10;;;3.70;;
8333;SDS011;4204;43.004;23.052;2022-12-10T07:08:37;11.13;;;5.43;;
8333;SDS011;4204;43.004;23.052;2022-12-10T07:11:05;7.60;;;4.57;;
8333;SDS011;4204;43.004;23.052;2022-12-10T07:13:33;6.97;;;3.70;;
8333;SDS011;4204;43.004;23.052;2022-12-10T07:16:01;8.30;;;5.43;;
8333;SDS011;4204;43.004;23.052;2022-12-10T07:18:29;6.70;;;3.63;;
8333;SDS011;4204;43.004;23.052;2022-12-10T07:20:57;6.63;;;3.23;;
8333;SDS011;4204;43.004;23.052;2022-12-10T07:23:25;10.20;;;5.10;;
8333;SDS011;4204;43.004;23.052;2022-12-10T07:25:55;9.87;;;5.43;;
8333;SDS011;4204;43.004;23.052;2022-12-10T07:28:22;8.37;;;4.20;;
8333;SDS011;4204;43.004;23.052;2022-12-10T07:30:50;11.30;;;6.80;;
8333;SDS011;4204;43.004;23.052;2022-12-10T07:33:18;8.97;;;4.60;;
8333;SDS011;4204;43.004;23.052;2022-12-10T07:35:45;5.03;;;3.77;;
8333;SDS011;4204;43.004;23.052;2022-12-10T07:38:13;6.83;;;3.90;;
8333;SDS011;4204;43.004;23.052;2022-12-10T07:40:41;9.97;;;4.97;;
8333;SDS011;4204;43.004;23.052;2022-12-10T07:43:11;6.13;;;3.10;;
8333;SDS011;4204;43.004;23.052;2022-12-10T07:45:39;7.20;;;2.97;;
8333;SDS011;4204;43.004;23.052;2022-12-10T07:48:06;5.00;;;2.60;;
8333;SDS011;4204;43.004;23.052;2022-12-10T07:50:34;4.30;;;3.00;;
8333;SDS011;4204;43.004;23.052;2022-12-10T07:53:03;8.53;;;4.20;;
8333;SDS011;4204;43.004;23.052;2022-12-10T07:55:32;6.63;;;3.47;;
8333;SDS011;4204;43.004;23.052;2022-12-10T07:58:00;6.70;;;4.63;;
8333;SDS011;4204;43.004;23.052;2022-12-10T08:00:29;6.70;;;3.83;;
8333;SDS011;4204;43.004;23.052;2022-12-10T08:02:56;7.43;;;3.33;;
8333;SDS011;4204;43.004;23.052;2022-12-10T08:05:24;7.20;;;4.07;;
8333;SDS011;4204;43.004;23.052;2022-12-10T08:07:52;5.00;;;3.90;;
8333;SDS011;4204;43.004;23.052;2022-12-10T08:10:19;3.93;;;2.80;;
8333;SDS011;4204;43.004;23.052;2022-12-10T08:12:47;17.13;;;10.83;;
8333;SDS011;4204;43.004;23.052;2022-12-10T08:15:15;4.37;;;3.03;;
8333;SDS011;4204;43.004;23.052;2022-12-10T08:17:44;5.17;;;2.90;;
8333;SDS011;4204;43.004;23.052;2022-12-10T08:20:13;5.63;;;4.47;;
8333;SDS011;4204;43.004;23.052;2022-12-10T08:22:41;4.40;;;2.97;;
8333;SDS011;4204;43.004;23.052;2022-12-10T08:25:08;5.53;;;2.67;;
8333;SDS011;4204;43.004;23.052;2022-12-10T08:27:36;12.43;;;3.87;;
8333;SDS011;4204;43.004;23.052;2022-12-10T08:30:05;5.87;;;2.70;;
8333;SDS011;4204;43.004;23.052;2022-12-10T08:32:33;6.90;;;3.40;;
8333;SDS011;4204;43.004;23.052;2022-12-10T08:35:02;7.47;;;3.07;;
8333;SDS011;4204;43.004;23.052;2022-12-10T08:37:30;3.07;;;2.30;;
8333;SDS011;4204;43.004;23.052;2022-12-10T08:39:58;8.97;;;4.70;;
8333;SDS011;4204;43.004;23.052;2022-12-10T08:42:26;8.43;;;3.63;;
8333;SDS011;4204;43.004;23.052;2022-12-10T08:44:53;5.83;;;2.70;;
8333;SDS011;4204;43.004;23.052;2022-12-10T08:47:21;5.97;;;3.70;;
8333;SDS011;4204;43.004;23.052;2022-12-10T08:49:49;4.07;;;2.60;;
8333;SDS011;4204;43.004;23.052;2022-12-10T08:52:21;6.00;;;3.00;;
8333;SDS011;4204;43.004;23.052;2022-12-10T08:54:48;3.60;;;2.60;;
8333;SDS011;4204;43.004;23.052;2022-12-10T08:57:16;3.97;;;2.67;;
8333;SDS011;4204;43.004;23.052;2022-12-10T08:59:44;11.03;;;4.70;;
8333;SDS011;4204;43.004;23.052;2022-12-10T09:02:12;5.93;;;3.30;;
8333;SDS011;4204;43.004;23.052;2022-12-10T09:04:39;8.57;;;3.27;;
8333;SDS011;4204;43.004;23.052;2022-12-10T09:07:08;8.00;;;2.90;;
8333;SDS011;4204;43.004;23.052;2022-12-10T09:09:37;5.33;;;3.30;;
8333;SDS011;4204;43.004;23.052;2022-12-10T09:12:05;5.40;;;2.90;;
8333;SDS011;4204;43.004;23.052;2022-12-10T09:14:33;4.50;;;2.50;;
8333;SDS011;4204;43.004;23.052;2022-12-10T09:17:04;5.37;;;2.80;;
8333;SDS011;4204;43.004;23.052;2022-12-10T09:19:32;3.57;;;2.47;;
8333;SDS011;4204;43.004;23.052;2022-12-10T09:21:59;4.53;;;2.30;;
8333;SDS011;4204;43.004;23.052;2022-12-10T09:24:27;6.17;;;3.50;;
8333;SDS011;4204;43.004;23.052;2022-12-10T09:26:56;5.87;;;3.00;;
8333;SDS011;4204;43.004;23.052;2022-12-10T09:29:24;5.13;;;3.13;;
8333;SDS011;4204;43.004;23.052;2022-12-10T09:31:52;4.10;;;2.30;;
8333;SDS011;4204;43.004;23.052;2022-12-10T09:34:20;4.53;;;2.30;;
8333;SDS011;4204;43.004;23.052;2022-12-10T09:36:48;3.67;;;2.43;;
8333;SDS011;4204;43.004;23.052;2022-12-10T09:39:16;3.87;;;2.63;;
8333;SDS011;4204;43.004;23.052;2022-12-10T09:41:48;6.73;;;2.90;;
8333;SDS011;4204;43.004;23.052;2022-12-10T09:44:28;3.13;;;2.53;;
8333;SDS011;4204;43.004;23.052;2022-12-10T09:47:05;5.23;;;2.70;;
8333;SDS011;4204;43.004;23.052;2022-12-10T09:49:39;6.70;;;2.67;;
8333;SDS011;4204;43.004;23.052;2022-12-10T09:52:20;2.53;;;2.33;;
8333;SDS011;4204;43.004;23.052;2022-12-10T09:54:50;3.23;;;2.20;;
8333;SDS011;4204;43.004;23.052;2022-12-10T09:57:22;3.23;;;2.40;;
8333;SDS011;4204;43.004;23.052;2022-12-10T09:59:55;6.33;;;2.30;;
8333;SDS011;4204;43.004;23.052;2022-12-10T10:02:28;5.40;;;2.77;;
8333;SDS011;4204;43.004;23.052;2022-12-10T10:04:58;4.27;;;2.37;;
8333;SDS011;4204;43.004;23.052;2022-12-10T10:07:34;3.20;;;2.47;;
8333;SDS011;4204;43.004;23.052;2022-12-10T10:10:06;3.07;;;1.90;;
8333;SDS011;4204;43.004;23.052;2022-12-10T10:12:45;4.60;;;2.53;;
8333;SDS011;4204;43.004;23.052;2022-12-10T10:15:15;8.57;;;2.53;;
8333;SDS011;4204;43.004;23.052;2022-12-10T10:17:45;5.90;;;3.73;;
8333;SDS011;4204;43.004;23.052;2022-12-10T10:20:15;13.20;;;6.17;;
8333;SDS011;4204;43.004;23.052;2022-12-10T10:22:43;4.83;;;2.83;;
8333;SDS011;4204;43.004;23.052;2022-12-10T10:25:12;4.07;;;2.63;;
8333;SDS011;4204;43.004;23.052;2022-12-10T10:27:42;4.87;;;3.70;;
8333;SDS011;4204;43.004;23.052;2022-12-10T10:30:13;3.63;;;2.83;;
8333;SDS011;4204;43.004;23.052;2022-12-10T10:32:45;3.20;;;2.63;;
8333;SDS011;4204;43.004;23.052;2022-12-10T10:35:19;4.43;;;2.40;;
8333;SDS011;4204;43.004;23.052;2022-12-10T10:37:49;4.47;;;3.33;;
8333;SDS011;4204;43.004;23.052;2022-12-10T10:40:22;4.00;;;2.90;;
8333;SDS011;4204;43.004;23.052;2022-12-10T10:42:53;4.70;;;2.70;;
8333;SDS011;4204;43.004;23.052;2022-12-10T10:45:34;4.07;;;2.90;;
8333;SDS011;4204;43.004;23.052;2022-12-10T10:48:08;3.77;;;2.37;;
8333;SDS011;4204;43.004;23.052;2022-12-10T10:50:39;3.80;;;2.10;;
8333;SDS011;4204;43.004;23.052;2022-12-10T10:53:21;5.37;;;2.40;;
8333;SDS011;4204;43.004;23.052;2022-12-10T10:55:56;4.43;;;2.00;;
8333;SDS011;4204;43.004;23.052;2022-12-10T10:58:26;5.37;;;2.20;;
8333;SDS011;4204;43.004;23.052;2022-12-10T11:00:57;5.83;;;2.33;;
8333;SDS011;4204;43.004;23.052;2022-12-10T11:03:27;4.37;;;2.03;;
8333;SDS011;4204;43.004;23.052;2022-12-10T11:05:57;3.87;;;2.10;;
8333;SDS011;4204;43.004;23.052;2022-12-10T11:08:27;5.77;;;2.40;;
8333;SDS011;4204;43.004;23.052;2022-12-10T11:10:58;3.20;;;2.10;;
8333;SDS011;4204;43.004;23.052;2022-12-10T11:13:30;4.47;;;2.10;;
8333;SDS011;4204;43.004;23.052;2022-12-10T11:16:02;4.77;;;1.60;;
8333;SDS011;4204;43.004;23.052;2022-12-10T11:18:39;4.00;;;2.10;;
8333;SDS011;4204;43.004;23.052;2022-12-10T11:21:15;3.90;;;2.10;;
8333;SDS011;4204;43.004;23.052;2022-12-10T11:23:48;3.57;;;1.80;;
8333;SDS011;4204;43.004;23.052;2022-12-10T11:26:24;2.47;;;1.70;;
8333;SDS011;4204;43.004;23.052;2022-12-10T11:29:17;3.40;;;1.90;;
8333;SDS011;4204;43.004;23.052;2022-12-10T11:32:00;6.30;;;2.20;;
8333;SDS011;4204;43.004;23.052;2022-12-10T11:34:41;4.73;;;1.97;;
8333;SDS011;4204;43.004;23.052;2022-12-10T11:37:21;4.97;;;2.50;;
8333;SDS011;4204;43.004;23.052;2022-12-10T11:40:00;5.70;;;2.90;;
8333;SDS011;4204;43.004;23.052;2022-12-10T11:42:43;4.97;;;2.43;;
8333;SDS011;4204;43.004;23.052;2022-12-10T11:45:18;2.93;;;2.40;;
8333;SDS011;4204;43.004;23.052;2022-12-10T11:47:55;2.97;;;2.30;;
8333;SDS011;4204;43.004;23.052;2022-12-10T11:50:39;7.03;;;3.43;;
8333;SDS011;4204;43.004;23.052;2022-12-10T11:53:23;4.10;;;2.77;;
8333;SDS011;4204;43.004;23.052;2022-12-10T11:56:04;7.43;;;2.90;;
8333;SDS011;4204;43.004;23.052;2022-12-10T11:58:44;4.90;;;2.40;;
8333;SDS011;4204;43.004;23.052;2022-12-10T12:01:34;4.97;;;2.20;;
8333;SDS011;4204;43.004;23.052;2022-12-10T12:04:18;4.13;;;2.33;;
8333;SDS011;4204;43.004;23.052;2022-12-10T12:06:55;4.43;;;2.30;;
8333;SDS011;4204;43.004;23.052;2022-12-10T12:09:34;4.57;;;2.20;;
8333;SDS011;4204;43.004;23.052;2022-12-10T12:12:17;4.63;;;2.40;;
8333;SDS011;4204;43.004;23.052;2022-12-10T12:14:57;7.07;;;2.47;;
8333;SDS011;4204;43.004;23.052;2022-12-10T12:17:28;4.07;;;2.53;;
8333;SDS011;4204;43.004;23.052;2022-12-10T12:20:02;4.20;;;2.00;;
8333;SDS011;4204;43.004;23.052;2022-12-10T12:22:36;4.20;;;2.47;;
8333;SDS011;4204;43.004;23.052;2022-12-10T12:25:14;3.10;;;2.10;;
8333;SDS011;4204;43.004;23.052;2022-12-10T12:27:48;5.83;;;2.00;;
8333;SDS011;4204;43.004;23.052;2022-12-10T12:30:19;4.00;;;2.20;;
8333;SDS011;4204;43.004;23.052;2022-12-10T12:32:51;5.23;;;2.20;;
8333;SDS011;4204;43.004;23.052;2022-12-10T12:35:28;4.83;;;2.57;;
8333;SDS011;4204;43.004;23.052;2022-12-10T12:38:03;3.03;;;2.27;;
8333;SDS011;4204;43.004;23.052;2022-12-10T12:40:43;3.40;;;2.50;;
8333;SDS011;4204;43.004;23.052;2022-12-10T12:43:19;6.90;;;2.97;;
8333;SDS011;4204;43.004;23.052;2022-12-10T12:45:51;5.00;;;2.00;;
8333;SDS011;4204;43.004;23.052;2022-12-10T12:48:23;3.93;;;2.53;;
8333;SDS011;4204;43.004;23.052;2022-12-10T12:51:00;4.33;;;2.50;;
8333;SDS011;4204;43.004;23.052;2022-12-10T12:53:30;6.30;;;2.70;;
8333;SDS011;4204;43.004;23.052;2022-12-10T12:55:59;3.73;;;2.33;;
8333;SDS011;4204;43.004;23.052;2022-12-10T12:58:34;5.13;;;2.63;;
8333;SDS011;4204;43.004;23.052;2022-12-10T13:01:13;5.27;;;3.40;;
8333;SDS011;4204;43.004;23.052;2022-12-10T13:03:48;7.03;;;3.30;;
8333;SDS011;4204;43.004;23.052;2022-12-10T13:06:20;6.10;;;2.83;;
8333;SDS011;4204;43.004;23.052;2022-12-10T13:08:52;4.40;;;2.40;;
8333;SDS011;4204;43.004;23.052;2022-12-10T13:11:29;3.60;;;2.70;;
8333;SDS011;4204;43.004;23.052;2022-12-10T13:14:13;4.80;;;2.57;;
8333;SDS011;4204;43.004;23.052;2022-12-10T13:17:07;8.40;;;3.03;;
8333;SDS011;4204;43.004;23.052;2022-12-10T13:19:53;7.03;;;2.53;;
8333;SDS011;4204;43.004;23.052;2022-12-10T13:22:43;6.27;;;2.00;;
8333;SDS011;4204;43.004;23.052;2022-12-10T13:25:33;3.83;;;2.03;;
8333;SDS011;4204;43.004;23.052;2022-12-10T13:28:16;9.03;;;2.03;;
8333;SDS011;4204;43.004;23.052;2022-12-10T13:33:46;8.83;;;2.53;;
8333;SDS011;4204;43.004;23.052;2022-12-10T13:36:20;4.13;;;2.40;;
8333;SDS011;4204;43.004;23.052;2022-12-10T13:38:56;4.23;;;2.40;;
8333;SDS011;4204;43.004;23.052;2022-12-10T13:41:39;5.70;;;2.43;;
8333;SDS011;4204;43.004;23.052;2022-12-10T13:44:35;4.67;;;2.50;;
8333;SDS011;4204;43.004;23.052;2022-12-10T13:47:24;4.33;;;2.33;;
8333;SDS011;4204;43.004;23.052;2022-12-10T13:49:56;5.53;;;2.57;;
8333;SDS011;4204;43.004;23.052;2022-12-10T13:52:25;3.67;;;2.50;;
8333;SDS011;4204;43.004;23.052;2022-12-10T13:55:07;4.17;;;2.47;;
8333;SDS011;4204;43.004;23.052;2022-12-10T13:57:51;4.63;;;2.80;;
8333;SDS011;4204;43.004;23.052;2022-12-10T14:00:29;4.37;;;2.83;;
8333;SDS011;4204;43.004;23.052;2022-12-10T14:03:07;3.60;;;2.90;;
8333;SDS011;4204;43.004;23.052;2022-12-10T14:05:52;7.03;;;2.93;;
8333;SDS011;4204;43.004;23.052;2022-12-10T14:08:27;5.77;;;3.10;;
8333;SDS011;4204;43.004;23.052;2022-12-10T14:10:59;5.50;;;2.77;;
8333;SDS011;4204;43.004;23.052;2022-12-10T14:13:30;7.50;;;3.30;;
8333;SDS011;4204;43.004;23.052;2022-12-10T14:16:01;4.23;;;2.57;;
8333;SDS011;4204;43.004;23.052;2022-12-10T14:18:31;4.87;;;2.90;;
8333;SDS011;4204;43.004;23.052;2022-12-10T14:20:59;12.07;;;7.17;;
8333;SDS011;4204;43.004;23.052;2022-12-10T14:23:32;12.70;;;6.40;;
8333;SDS011;4204;43.004;23.052;2022-12-10T14:26:09;8.47;;;3.93;;
8333;SDS011;4204;43.004;23.052;2022-12-10T14:28:40;3.90;;;2.57;;
8333;SDS011;4204;43.004;23.052;2022-12-10T14:31:11;7.47;;;2.80;;
8333;SDS011;4204;43.004;23.052;2022-12-10T14:33:44;4.50;;;2.53;;
8333;SDS011;4204;43.004;23.052;2022-12-10T14:36:14;7.07;;;3.03;;
8333;SDS011;4204;43.004;23.052;2022-12-10T14:38:45;5.23;;;2.90;;
8333;SDS011;4204;43.004;23.052;2022-12-10T14:41:17;5.07;;;3.43;;
8333;SDS011;4204;43.004;23.052;2022-12-10T14:43:48;6.70;;;2.80;;
8333;SDS011;4204;43.004;23.052;2022-12-10T14:46:18;10.57;;;3.23;;
8333;SDS011;4204;43.004;23.052;2022-12-10T14:48:49;9.43;;;3.07;;
8333;SDS011;4204;43.004;23.052;2022-12-10T14:51:18;4.23;;;2.87;;
8333;SDS011;4204;43.004;23.052;2022-12-10T14:53:49;3.93;;;2.83;;
8333;SDS011;4204;43.004;23.052;2022-12-10T14:56:22;3.17;;;2.77;;
8333;SDS011;4204;43.004;23.052;2022-12-10T14:58:55;5.80;;;4.63;;
8333;SDS011;4204;43.004;23.052;2022-12-10T15:01:30;5.67;;;3.20;;
8333;SDS011;4204;43.004;23.052;2022-12-10T15:04:01;6.47;;;2.80;;
8333;SDS011;4204;43.004;23.052;2022-12-10T15:06:33;4.50;;;3.00;;
8333;SDS011;4204;43.004;23.052;2022-12-10T15:09:02;6.80;;;4.03;;
8333;SDS011;4204;43.004;23.052;2022-12-10T15:11:33;6.63;;;3.07;;
8333;SDS011;4204;43.004;23.052;2022-12-10T15:14:01;4.83;;;3.20;;
8333;SDS011;4204;43.004;23.052;2022-12-10T15:16:31;6.13;;;2.97;;
8333;SDS011;4204;43.004;23.052;2022-12-10T15:19:07;11.50;;;3.40;;
8333;SDS011;4204;43.004;23.052;2022-12-10T15:21:45;6.40;;;3.43;;
8333;SDS011;4204;43.004;23.052;2022-12-10T15:24:19;9.47;;;3.40;;
8333;SDS011;4204;43.004;23.052;2022-12-10T15:26:50;6.10;;;3.10;;
8333;SDS011;4204;43.004;23.052;2022-12-10T15:29:30;5.77;;;3.20;;